Time;durP1;ratioP1;P1;durP2;ratioP2;P2;SDS_P1;SDS_P2;PMS_P1;PMS_P2;Temp;Humidity;BMP_temperature;BMP_pressure;BME280_temperature;BME280_humidity;BME280_pressure;Samples;Min_cycle;Max_cycle;Signal;HPM_P1;HPM_P2
2022/07/12 00:02:29;;;;;;;;;;;;;;;;;;;;;
2022/07/12 00:05:16;;;;;;;7.18;2.55;;;13.50;99.90;;;;;;6064913;23;19917;-85
2022/07/12 00:08:00;;;;;;;6.57;2.53;;;13.40;99.90;;;;;;6040989;23;20066;-85
2022/07/12 00:10:26;;;;;;;;;;;14.30;99.90;;;;;;6125368;23;20024;-85
2022/07/12 00:13:11;;;;;;;7.38;2.50;;;13.40;99.90;;;;;;6123219;23;19967;-85
2022/07/12 00:15:43;;;;;;;;;;;13.30;99.90;;;;;;6124843;23;20018;-85
2022/07/12 00:18:14;;;;;;;7.68;2.65;;;13.20;99.90;;;;;;6123831;23;19917;-85
2022/07/12 00:21:27;;;;;;;8.18;2.50;;;14.30;99.90;;;;;;6124972;23;20018;-85
2022/07/12 00:27:43;;;;;;;6.95;2.58;;;12.70;99.90;;;;;;6102012;23;20021;-85
2022/07/12 00:30:22;;;;;;;6.97;2.40;;;14.20;99.90;;;;;;6126495;23;20018;-87
2022/07/12 00:32:56;;;;;;;7.18;2.47;;;13.00;99.90;;;;;;6125362;23;20485;-87
2022/07/12 00:35:37;;;;;;;8.52;2.33;;;13.60;99.90;;;;;;6123644;23;20052;-85
2022/07/12 00:38:18;;;;;;;7.05;2.53;;;13.90;99.90;;;;;;6124047;23;20411;-84
2022/07/12 00:40:50;;;;;;;7.35;2.58;;;12.50;99.90;;;;;;6125663;23;20037;-84
2022/07/12 00:43:16;;;;;;;7.43;2.58;;;13.00;99.90;;;;;;6124227;23;20029;-85
2022/07/12 00:46:00;;;;;;;6.80;2.40;;;13.70;99.90;;;;;;6145566;23;20022;-85
2022/07/12 00:49:32;;;;;;;6.75;2.40;;;12.90;99.90;;;;;;6151495;23;20017;-85
2022/07/12 00:52:32;;;;;;;;;;;13.00;99.90;;;;;;6155045;23;20029;-85
2022/07/12 00:56:05;;;;;;;6.68;2.40;;;12.90;99.90;;;;;;6152158;23;19922;-85
2022/07/12 00:59:22;;;;;;;7.55;2.55;;;13.40;99.90;;;;;;6153178;23;20045;-85
2022/07/12 01:02:46;;;;;;;6.95;2.60;;;12.80;99.90;;;;;;6152650;23;20454;-86
2022/07/12 01:06:20;;;;;;;6.50;2.20;;;12.80;99.90;;;;;;6139382;23;20018;-86
2022/07/12 01:08:49;;;;;;;9.60;2.75;;;12.90;99.90;;;;;;6152756;23;20052;-86
2022/07/12 01:11:49;;;;;;;7.32;2.40;;;12.50;99.90;;;;;;6154324;23;20028;-86
2022/07/12 01:15:08;;;;;;;;;;;;;;;;;;;;;
2022/07/12 01:17:56;;;;;;;9.43;2.33;;;12.50;99.90;;;;;;6086444;23;20458;-86
2022/07/12 01:20:53;;;;;;;7.27;2.50;;;12.50;99.90;;;;;;6155137;23;20065;-86
2022/07/12 01:27:14;;;;;;;8.13;3.00;;;11.40;99.90;;;;;;6064897;23;20519;-86
2022/07/12 01:30:11;;;;;;;7.47;2.65;;;12.50;99.90;;;;;;6040740;23;20083;-85
2022/07/12 01:32:46;;;;;;;7.53;2.60;;;13.50;99.90;;;;;;6040702;23;20174;-86
2022/07/12 01:35:12;;;;;;;7.00;2.47;;;12.30;99.90;;;;;;6042695;23;20103;-86
2022/07/12 01:41:04;;;;;;;7.65;2.85;;;12.10;99.90;;;;;;6042363;23;20023;-85
2022/07/12 01:43:39;;;;;;;7.22;2.30;;;12.30;99.90;;;;;;6042815;23;20015;-85
2022/07/12 01:46:05;;;;;;;7.25;2.65;;;12.40;99.90;;;;;;6041582;23;20452;-85
2022/07/12 01:48:30;;;;;;;7.88;2.70;;;12.10;99.90;;;;;;6042057;23;20055;-85
2022/07/12 01:51:21;;;;;;;7.30;2.50;;;13.00;99.90;;;;;;6066462;23;20027;-86
2022/07/12 01:53:56;;;;;;;8.70;3.00;;;12.30;99.90;;;;;;6066336;23;20025;-86
2022/07/12 01:56:36;;;;;;;8.25;2.70;;;12.20;99.90;;;;;;6043149;23;20029;-85
2022/07/12 01:59:02;;;;;;;7.07;2.42;;;13.20;99.90;;;;;;6045337;23;20077;-85
2022/07/12 02:04:44;;;;;;;7.50;2.75;;;12.60;99.90;;;;;;6156778;23;20017;-85
2022/07/12 02:07:25;;;;;;;8.35;2.90;;;12.30;99.90;;;;;;6036910;23;20059;-86
2022/07/12 02:13:05;;;;;;;7.60;2.90;;;12.10;99.90;;;;;;6013023;23;20023;-85
2022/07/12 02:18:51;;;;;;;8.00;2.70;;;12.50;99.90;;;;;;5924757;24;20052;-85
2022/07/12 02:21:31;;;;;;;7.50;2.60;;;12.10;99.90;;;;;;5925413;24;20057;-86
2022/07/12 02:24:22;;;;;;;7.15;2.63;;;11.20;99.90;;;;;;5927378;24;20078;-86
2022/07/12 02:27:00;;;;;;;7.40;2.58;;;12.00;99.90;;;;;;5924868;24;20021;-85
2022/07/12 02:29:26;;;;;;;7.60;2.55;;;11.90;99.90;;;;;;5995477;23;20030;-85
2022/07/12 02:32:11;;;;;;;7.65;2.50;;;12.00;99.90;;;;;;6090726;23;20010;-86
2022/07/12 02:34:52;;;;;;;7.68;2.47;;;11.90;99.90;;;;;;6155665;23;20022;-85
2022/07/12 02:38:14;;;;;;;7.03;2.60;;;12.30;99.90;;;;;;6132903;23;20334;-85
2022/07/12 02:45:53;;;;;;;8.43;2.65;;;11.80;99.90;;;;;;6183183;23;20021;-86
2022/07/12 02:48:35;;;;;;;7.45;2.40;;;12.00;99.90;;;;;;6158922;23;20021;-85
2022/07/12 02:51:01;;;;;;;7.50;2.47;;;11.70;99.90;;;;;;6159306;23;20024;-85
2022/07/12 02:53:28;;;;;;;7.85;2.72;;;12.10;99.90;;;;;;6186493;23;20024;-85
2022/07/12 02:55:56;;;;;;;7.88;2.67;;;12.10;99.90;;;;;;6184833;23;20039;-85
2022/07/12 02:58:25;;;;;;;8.00;3.10;;;11.60;99.90;;;;;;6186483;23;20013;-85
2022/07/12 03:00:50;;;;;;;7.53;2.70;;;11.80;99.90;;;;;;6159282;23;20035;-86
2022/07/12 03:03:28;;;;;;;9.23;2.45;;;12.60;99.90;;;;;;6158308;23;20092;-85
2022/07/12 03:06:03;;;;;;;8.50;3.00;;;12.70;99.90;;;;;;6156877;23;20032;-85
2022/07/12 03:09:30;;;;;;;7.75;2.70;;;11.60;99.90;;;;;;6159218;23;20028;-86
2022/07/12 03:12:55;;;;;;;8.50;2.40;;;11.20;99.90;;;;;;6158645;23;20476;-86
2022/07/12 03:15:51;;;;;;;;;;;;;;;;;;;;;
2022/07/12 03:19:21;;;;;;;8.50;2.90;;;12.80;99.90;;;;;;6185686;23;20015;-85
2022/07/12 03:21:53;;;;;;;7.78;2.72;;;11.50;99.90;;;;;;6159121;23;20473;-86
2022/07/12 03:24:34;;;;;;;7.93;2.92;;;11.50;99.90;;;;;;6158452;23;20454;-86
2022/07/12 03:27:18;;;;;;;7.90;2.83;;;12.70;99.90;;;;;;6185472;23;20027;-86
2022/07/12 03:29:59;;;;;;;8.10;3.00;;;11.10;99.90;;;;;;6184807;23;20020;-86
2022/07/12 03:37:50;;;;;;;7.30;2.60;;;11.50;99.90;;;;;;6168377;23;20057;-86
2022/07/12 03:41:10;;;;;;;8.73;2.83;;;12.30;99.90;;;;;;6159329;23;20021;-86
2022/07/12 03:43:35;;;;;;;7.53;2.72;;;11.30;99.90;;;;;;6158653;23;20071;-86
2022/07/12 03:46:01;;;;;;;8.05;2.75;;;11.10;99.90;;;;;;6186577;23;20013;-86
2022/07/12 03:48:55;;;;;;;7.78;2.85;;;11.50;99.90;;;;;;6158981;23;20021;-86
2022/07/12 03:54:45;;;;;;;7.78;2.45;;;12.30;99.90;;;;;;6185391;23;20088;-86
2022/07/12 04:06:55;;;;;;;7.63;2.70;;;11.50;99.90;;;;;;6212789;23;20087;-86
2022/07/12 04:09:59;;;;;;;8.48;2.75;;;11.60;99.90;;;;;;6215443;23;20044;-86
2022/07/12 04:12:34;;;;;;;8.68;3.03;;;11.40;99.90;;;;;;6040543;23;20073;-86
2022/07/12 04:15:15;;;;;;;7.95;2.70;;;12.10;99.90;;;;;;6215482;23;20020;-86
2022/07/12 04:17:57;;;;;;;8.15;2.92;;;12.90;99.90;;;;;;6188251;23;20084;-86
2022/07/12 04:20:27;;;;;;;7.68;2.80;;;12.40;99.90;;;;;;6187985;23;20047;-86
2022/07/12 04:22:52;;;;;;;8.38;2.92;;;11.80;99.90;;;;;;6188309;23;20024;-86
2022/07/12 04:25:21;;;;;;;9.75;3.60;;;13.00;99.90;;;;;;6188981;23;20017;-85
2022/07/12 04:27:55;;;;;;;7.75;2.85;;;12.00;99.90;;;;;;6214177;23;20017;-86
2022/07/12 04:30:46;;;;;;;8.27;2.85;;;13.30;99.90;;;;;;6129493;23;20322;-86
2022/07/12 04:33:39;;;;;;;8.68;3.33;;;12.10;99.90;;;;;;6214478;23;20017;-86
2022/07/12 04:36:20;;;;;;;8.95;3.30;;;11.50;99.90;;;;;;6188115;23;20017;-86
2022/07/12 04:38:48;;;;;;;9.23;3.45;;;12.10;99.90;;;;;;6188316;23;20456;-86
2022/07/12 04:42:02;;;;;;;8.82;3.15;;;12.80;99.90;;;;;;6187493;23;20125;-86
2022/07/12 04:48:22;;;;;;;11.02;4.00;;;12.40;99.90;;;;;;6035104;23;20095;-86
2022/07/12 04:50:48;;;;;;;;;;;12.60;99.90;;;;;;6036459;23;20030;-86
2022/07/12 04:53:29;;;;;;;10.95;4.70;;;13.00;99.90;;;;;;6012541;23;19922;-86
2022/07/12 04:56:00;;;;;;;10.13;4.68;;;12.60;99.90;;;;;;6034919;23;20457;-86
2022/07/12 04:59:19;;;;;;;12.43;4.80;;;13.90;99.90;;;;;;6052291;23;20030;-86
2022/07/12 05:02:38;;;;;;;11.52;4.72;;;12.70;99.90;;;;;;6145609;23;20056;-86
2022/07/12 05:05:50;;;;;;;13.25;5.40;;;13.00;99.90;;;;;;6181842;23;20031;-86
2022/07/12 05:08:34;;;;;;;11.98;5.00;;;13.00;99.90;;;;;;6181043;23;20017;-86
2022/07/12 05:11:08;;;;;;;13.52;5.72;;;12.70;99.90;;;;;;6157022;23;20021;-86
2022/07/12 05:14:10;;;;;;;11.75;5.63;;;14.20;99.90;;;;;;6182350;23;20021;-86
2022/07/12 05:16:36;;;;;;;14.65;6.68;;;13.50;99.90;;;;;;6212288;23;20017;-85
2022/07/12 05:19:21;;;;;;;13.40;6.53;;;14.20;99.90;;;;;;6188546;23;20055;-86
2022/07/12 05:22:19;;;;;;;14.02;6.57;;;12.90;99.90;;;;;;6217735;23;20023;-86
2022/07/12 05:24:50;;;;;;;13.65;6.22;;;12.30;99.90;;;;;;6041835;23;20019;-86
2022/07/12 05:27:56;;;;;;;14.27;6.97;;;14.60;99.90;;;;;;6063505;23;20444;-85
2022/07/12 05:30:22;;;;;;;15.20;7.82;;;13.80;99.90;;;;;;6064137;23;20433;-86
2022/07/12 05:35:23;;;;;;;17.17;7.90;;;13.90;99.90;;;;;;6184781;23;20017;-85
2022/07/12 05:37:48;;;;;;;15.60;7.93;;;13.90;99.90;;;;;;6156169;23;20036;-86
2022/07/12 05:40:26;;;;;;;14.98;7.43;;;14.00;99.90;;;;;;6158449;23;20071;-86
2022/07/12 05:43:07;;;;;;;14.73;7.68;;;14.20;99.90;;;;;;6184429;23;20349;-86
2022/07/12 05:46:11;;;;;;;17.33;8.40;;;15.40;99.90;;;;;;6157734;23;20017;-87
2022/07/12 05:48:57;;;;;;;15.43;7.47;;;14.20;99.90;;;;;;6157941;23;20013;-86
2022/07/12 05:54:24;;;;;;;15.73;7.65;;;14.40;99.90;;;;;;6182255;23;20417;-86
2022/07/12 06:00:33;;;;;;;15.32;7.78;;;14.60;99.90;;;;;;6184268;23;20029;-86
2022/07/12 06:07:44;;;;;;;15.20;7.95;;;14.50;99.90;;;;;;6154783;23;20017;-88
2022/07/12 06:11:16;;;;;;;18.45;8.63;;;15.00;99.90;;;;;;6158271;23;20517;-87
2022/07/12 06:13:46;;;;;;;19.65;9.73;;;14.90;99.90;;;;;;6156117;23;20013;-92
2022/07/12 06:16:14;;;;;;;20.08;9.77;;;16.40;99.90;;;;;;6159174;23;20385;-92
2022/07/12 06:18:43;;;;;;;18.90;10.23;;;15.90;99.90;;;;;;6157377;23;20052;-94
2022/07/12 06:21:17;;;;;;;17.27;9.27;;;16.20;99.90;;;;;;6187140;23;20027;-92
2022/07/12 06:23:43;;;;;;;16.58;9.02;;;17.10;99.90;;;;;;6160707;23;20021;-93
2022/07/12 06:26:11;;;;;;;18.55;9.05;;;17.00;99.90;;;;;;6159775;23;20052;-93
2022/07/12 06:28:46;;;;;;;15.95;8.65;;;17.40;99.90;;;;;;6160854;23;20017;-95
2022/07/12 06:31:18;;;;;;;15.45;8.70;;;16.80;99.90;;;;;;6187241;23;20017;-91
2022/07/12 06:33:58;;;;;;;15.20;8.98;;;17.10;99.90;;;;;;6158541;23;20020;-91
2022/07/12 06:36:26;;;;;;;15.30;8.93;;;18.00;99.90;;;;;;6172743;23;20021;-91
2022/07/12 06:39:00;;;;;;;15.95;8.40;;;18.00;99.90;;;;;;6159611;23;20017;-90
2022/07/12 06:41:29;;;;;;;15.02;8.40;;;17.90;99.90;;;;;;6160166;23;20021;-91
2022/07/12 06:43:55;;;;;;;12.77;7.13;;;17.30;99.90;;;;;;6187033;23;20441;-90
2022/07/12 06:46:26;;;;;;;12.13;6.88;;;17.30;99.90;;;;;;6161370;23;20017;-91
2022/07/12 06:48:58;;;;;;;12.88;6.88;;;17.50;99.90;;;;;;6164712;23;20048;-91
2022/07/12 06:51:39;;;;;;;12.75;7.10;;;17.50;99.90;;;;;;6187122;23;20092;-91
2022/07/12 06:54:17;;;;;;;12.32;6.95;;;18.10;99.90;;;;;;6166954;23;20345;-91
2022/07/12 06:56:59;;;;;;;11.38;6.30;;;18.50;99.90;;;;;;6186156;23;20052;-91
2022/07/12 06:59:47;;;;;;;11.80;6.20;;;17.90;99.90;;;;;;6160168;23;20044;-92
2022/07/12 07:02:32;;;;;;;11.75;6.05;;;18.10;99.90;;;;;;6191745;23;20017;-91
2022/07/12 07:05:07;;;;;;;11.18;6.70;;;18.20;99.90;;;;;;6190371;23;20068;-93
2022/07/12 07:07:43;;;;;;;11.32;6.45;;;18.10;99.90;;;;;;6187250;23;20017;-89
2022/07/12 07:10:24;;;;;;;10.50;5.97;;;18.90;99.90;;;;;;6160606;23;20049;-94
2022/07/12 07:12:49;;;;;;;10.80;5.93;;;19.20;99.90;;;;;;6164820;23;20019;-92
2022/07/12 07:15:15;;;;;;;9.70;5.57;;;18.50;99.90;;;;;;6159587;23;20044;-90
2022/07/12 07:17:42;;;;;;;10.82;5.13;;;19.00;99.90;;;;;;6186931;23;20017;-90
2022/07/12 07:20:09;;;;;;;10.00;5.40;;;19.50;99.90;;;;;;6161383;23;20095;-93
2022/07/12 07:22:35;;;;;;;9.95;5.13;;;18.80;99.90;;;;;;6161192;23;20092;-89
2022/07/12 07:25:10;;;;;;;10.98;5.13;;;18.70;99.90;;;;;;6161102;23;20028;-92
2022/07/12 07:27:45;;;;;;;10.55;5.85;;;19.00;99.90;;;;;;6160794;23;20041;-90
2022/07/12 07:32:55;;;;;;;10.88;5.82;;;19.00;99.90;;;;;;6162653;23;20020;-89
2022/07/12 07:35:27;;;;;;;10.85;6.10;;;19.80;99.90;;;;;;6188118;23;20067;-88
2022/07/12 07:38:05;;;;;;;11.00;6.22;;;20.00;99.90;;;;;;6186314;23;20055;-88
2022/07/12 07:40:37;;;;;;;11.10;5.57;;;19.20;99.90;;;;;;6188615;23;20541;-90
2022/07/12 07:43:02;;;;;;;12.27;5.78;;;19.20;99.90;;;;;;6158681;23;20096;-91
2022/07/12 07:45:28;;;;;;;10.75;5.90;;;20.20;99.90;;;;;;6161031;23;20059;-91
2022/07/12 07:47:53;;;;;;;10.48;5.72;;;20.00;99.90;;;;;;6160180;23;20396;-90
2022/07/12 07:50:19;;;;;;;9.60;5.43;;;20.60;99.90;;;;;;6162052;23;20016;-91
2022/07/12 07:52:51;;;;;;;10.27;5.45;;;20.30;99.90;;;;;;6162512;23;20503;-91
2022/07/12 07:55:32;;;;;;;10.15;5.53;;;20.10;99.90;;;;;;6163406;23;20017;-90
2022/07/12 07:58:10;;;;;;;10.10;6.07;;;20.80;99.90;;;;;;6168631;23;20021;-89
2022/07/12 08:00:45;;;;;;;10.13;5.85;;;20.80;99.90;;;;;;6191953;23;20488;-90
2022/07/12 08:03:20;;;;;;;10.52;5.80;;;20.00;99.90;;;;;;6189071;23;20039;-87
2022/07/12 08:06:01;;;;;;;10.23;5.38;;;20.10;99.90;;;;;;6160752;23;20013;-93
2022/07/12 08:08:36;;;;;;;9.65;4.90;;;20.30;99.90;;;;;;6186645;23;20010;-90
2022/07/12 08:11:11;;;;;;;10.38;5.10;;;20.50;99.90;;;;;;6137291;23;20109;-90
2022/07/12 08:13:48;;;;;;;10.20;5.47;;;21.30;99.90;;;;;;6135561;23;20028;-87
2022/07/12 08:16:20;;;;;;;10.80;5.35;;;20.90;99.90;;;;;;6142446;23;20100;-89
2022/07/12 08:19:05;;;;;;;9.45;4.90;;;21.90;99.90;;;;;;6175169;23;20021;-91
2022/07/12 08:21:40;;;;;;;9.35;4.90;;;21.10;99.90;;;;;;6146438;23;20022;-89
2022/07/12 08:24:17;;;;;;;9.13;5.07;;;21.20;99.90;;;;;;6159944;23;20017;-89
2022/07/12 08:26:43;;;;;;;9.13;4.60;;;21.90;99.90;;;;;;6138288;23;20021;-90
2022/07/12 08:29:17;;;;;;;10.13;5.10;;;22.30;99.90;;;;;;6163891;23;20029;-91
2022/07/12 08:31:49;;;;;;;9.18;4.28;;;21.50;99.90;;;;;;6164336;23;20021;-90
2022/07/12 08:34:27;;;;;;;8.45;4.05;;;21.70;99.90;;;;;;6190497;23;20013;-91
2022/07/12 08:36:57;;;;;;;8.60;4.07;;;22.60;99.90;;;;;;6163097;23;20025;-90
2022/07/12 08:39:29;;;;;;;8.57;4.38;;;21.90;99.90;;;;;;6161137;23;20021;-91
2022/07/12 08:42:07;;;;;;;8.75;4.25;;;22.50;99.90;;;;;;6188723;23;20055;-92
2022/07/12 08:45:22;;;;;;;9.75;4.05;;;22.40;99.90;;;;;;6186888;23;20020;-91
2022/07/12 08:48:47;;;;;;;9.20;4.30;;;22.40;99.90;;;;;;6162950;23;20370;-94
2022/07/12 08:51:22;;;;;;;7.90;3.88;;;22.60;99.90;;;;;;6167194;23;20021;-92
2022/07/12 08:54:15;;;;;;;8.03;3.90;;;22.90;99.90;;;;;;6159893;23;20032;-89
2022/07/12 08:56:58;;;;;;;9.38;3.58;;;23.00;99.90;;;;;;6160451;23;20252;-87
2022/07/12 08:59:35;;;;;;;7.90;3.78;;;23.00;99.90;;;;;;6160877;23;20017;-88
2022/07/12 09:05:27;;;;;;;7.82;3.70;;;23.20;99.90;;;;;;6185478;23;20323;-89
2022/07/12 09:08:22;;;;;;;7.93;3.30;;;23.30;99.90;;;;;;6160049;23;20029;-88
2022/07/12 09:11:02;;;;;;;8.70;4.00;;;23.30;99.90;;;;;;6160511;23;20013;-89
2022/07/12 09:13:48;;;;;;;7.43;3.30;;;23.30;99.90;;;;;;6188735;23;20017;-88
2022/07/12 09:16:20;;;;;;;6.60;2.65;;;23.90;99.90;;;;;;6163216;23;20025;-89
2022/07/12 09:18:51;;;;;;;7.55;3.47;;;23.40;99.90;;;;;;6168667;23;20021;-90
2022/07/12 09:21:30;;;;;;;8.27;3.80;;;23.40;99.90;;;;;;6167530;23;20413;-88
2022/07/12 09:23:58;;;;;;;8.18;3.75;;;23.30;99.90;;;;;;6167266;23;20044;-88
2022/07/12 09:26:32;;;;;;;8.18;3.92;;;23.50;99.90;;;;;;6192532;23;20028;-88
2022/07/12 09:29:06;;;;;;;7.88;3.45;;;23.70;99.90;;;;;;6163744;23;20311;-90
2022/07/12 09:37:39;;;;;;;6.03;2.40;;;24.00;99.90;;;;;;6165975;23;20025;-88
2022/07/12 09:40:09;;;;;;;7.40;3.00;;;24.00;99.90;;;;;;6165947;23;20029;-89
2022/07/12 09:42:48;;;;;;;9.60;2.70;;;23.90;99.90;;;;;;6160911;23;20426;-88
2022/07/12 09:45:15;;;;;;;6.78;2.50;;;23.80;99.90;;;;;;6186675;23;20052;-89
2022/07/12 09:47:44;;;;;;;6.22;2.30;;;24.00;99.90;;;;;;6185536;23;20009;-88
2022/07/12 09:50:13;;;;;;;7.45;2.92;;;24.30;99.90;;;;;;6161040;23;20488;-87
2022/07/12 10:22:38;;;;;;;6.13;2.30;;;25.40;99.90;;;;;;6181821;23;20049;-89
2022/07/12 10:50:17;;;;;;;4.97;2.00;;;26.50;99.90;;;;;;6156155;23;20458;31
2022/07/12 10:55:24;;;;;;;4.30;1.60;;;26.20;99.90;;;;;;6164262;23;20005;-89
2022/07/12 10:58:09;;;;;;;2.72;1.50;;;25.90;99.90;;;;;;6156924;23;20021;-88
2022/07/12 12:43:40;;;;;;;2.30;1.50;;;28.80;97.70;;;;;;6174350;23;20048;-91
2022/07/12 13:25:46;;;;;;;3.53;1.60;;;29.70;95.10;;;;;;6087880;23;20069;-87
2022/07/12 13:29:21;;;;;;;4.47;1.85;;;29.40;94.90;;;;;;6127433;23;20403;-88
2022/07/12 13:32:15;;;;;;;5.65;1.60;;;29.50;94.80;;;;;;6129174;23;20028;-88
2022/07/12 13:37:20;;;;;;;3.90;1.60;;;29.80;95.90;;;;;;6154708;23;20029;-88
2022/07/12 13:46:28;;;;;;;2.90;1.50;;;29.10;94.90;;;;;;6154726;23;20438;-87
2022/07/12 13:48:54;;;;;;;4.28;1.55;;;29.20;95.50;;;;;;6153743;23;20049;-89
2022/07/12 13:51:20;;;;;;;2.97;1.40;;;29.40;95.00;;;;;;6156364;23;20018;-88
2022/07/12 13:53:48;;;;;;;2.65;1.40;;;28.70;95.00;;;;;;6156679;23;20028;-87
2022/07/12 13:56:32;;;;;;;3.38;1.50;;;28.60;94.80;;;;;;6159829;23;20465;-88
2022/07/12 14:08:15;;;;;;;2.83;1.30;;;28.60;92.50;;;;;;6157802;23;20012;-89
2022/07/12 14:10:44;;;;;;;3.45;1.50;;;28.20;93.00;;;;;;6154820;23;20017;-90
2022/07/12 14:14:08;;;;;;;5.53;1.50;;;28.10;93.40;;;;;;6157417;23;20088;-89
2022/07/12 14:16:37;;;;;;;4.00;1.50;;;28.00;93.40;;;;;;6156620;23;20028;-91
2022/07/12 14:51:46;;;;;;;3.97;1.48;;;28.40;92.40;;;;;;6185242;23;20067;-90
2022/07/12 15:05:42;;;;;;;2.90;1.45;;;27.70;92.30;;;;;;6161345;23;20028;-91
2022/07/12 15:08:26;;;;;;;1.73;1.30;;;27.70;91.80;;;;;;6159179;23;20064;-91
2022/07/12 15:22:36;;;;;;;4.18;1.60;;;27.50;93.10;;;;;;6170486;23;20437;-89
2022/07/12 15:25:53;;;;;;;3.85;1.40;;;27.50;93.00;;;;;;6159586;23;20036;-89
2022/07/12 15:28:22;;;;;;;3.67;1.60;;;27.40;93.10;;;;;;6185171;23;20013;-93
2022/07/12 15:31:15;;;;;;;4.20;1.50;;;27.30;92.90;;;;;;6185317;23;20045;-87
2022/07/12 15:33:44;;;;;;;5.35;1.52;;;27.30;93.20;;;;;;6159236;23;20047;-87
2022/07/12 15:36:44;;;;;;;3.78;1.50;;;27.40;93.20;;;;;;6158719;23;20022;-87
2022/07/12 15:39:31;;;;;;;4.55;1.48;;;27.50;93.40;;;;;;6159128;23;20027;-93
2022/07/12 15:54:30;;;;;;;5.18;1.70;;;27.90;93.10;;;;;;6128372;23;20025;-87
2022/07/12 15:57:16;;;;;;;6.55;1.50;;;28.00;93.60;;;;;;6153341;23;20017;-86
2022/07/12 15:59:42;;;;;;;5.07;1.77;;;27.80;92.40;;;;;;6129098;23;20345;-88
2022/07/12 17:15:22;;;;;;;7.00;2.15;;;26.10;96.30;;;;;;6178466;23;20028;-90
2022/07/12 17:18:51;;;;;;;9.10;2.45;;;26.00;96.90;;;;;;6155123;23;20018;-90
2022/07/12 17:46:38;;;;;;;5.80;1.92;;;25.50;98.90;;;;;;6154515;23;20026;-89
2022/07/12 20:30:37;;;;;;;6.60;2.22;;;21.60;99.90;;;;;;6188431;23;20128;-87
2022/07/12 21:21:27;;;;;;;5.97;2.40;;;21.30;99.90;;;;;;6153704;23;20030;-85
2022/07/12 21:24:20;;;;;;;7.55;2.65;;;21.20;99.90;;;;;;6153780;23;20014;-85
2022/07/12 21:29:44;;;;;;;7.32;2.58;;;21.00;99.90;;;;;;6106312;23;19988;-85
2022/07/12 21:39:36;;;;;;;6.70;2.60;;;21.50;99.90;;;;;;6153818;23;20056;-86
2022/07/12 21:57:10;;;;;;;8.40;2.67;;;21.30;99.90;;;;;;6154481;23;20023;-87
2022/07/12 22:22:50;;;;;;;8.18;3.00;;;20.90;99.90;;;;;;6006650;23;19915;-86
2022/07/12 22:25:48;;;;;;;7.25;2.70;;;20.70;99.90;;;;;;5985876;23;20027;-88
2022/07/12 22:28:14;;;;;;;8.05;2.92;;;20.40;99.90;;;;;;6117781;23;20025;-85
2022/07/12 22:30:40;;;;;;;7.90;3.33;;;20.60;99.90;;;;;;6176734;23;20021;-85
2022/07/12 22:33:17;;;;;;;7.85;3.17;;;20.60;99.90;;;;;;6159949;23;20021;-85
2022/07/12 22:36:09;;;;;;;6.97;3.10;;;20.50;99.90;;;;;;6160285;23;20021;-84
2022/07/12 22:39:01;;;;;;;7.60;3.30;;;20.60;99.90;;;;;;6129863;23;20035;-85
2022/07/12 22:45:12;;;;;;;8.48;3.30;;;20.60;99.90;;;;;;6077499;23;20107;-85
2022/07/12 22:47:59;;;;;;;8.65;3.33;;;20.70;99.90;;;;;;6160116;23;20013;-85
2022/07/12 22:54:45;;;;;;;9.00;3.28;;;20.60;99.90;;;;;;6057802;23;20025;-85
2022/07/12 22:57:51;;;;;;;6.90;3.30;;;20.50;99.90;;;;;;6014148;23;20023;-85
2022/07/12 23:04:07;;;;;;;8.35;3.25;;;20.40;99.90;;;;;;6008774;23;20071;-85
2022/07/12 23:07:17;;;;;;;8.35;3.28;;;20.30;99.90;;;;;;5924830;24;20077;-85
2022/07/12 23:09:43;;;;;;;7.53;3.05;;;20.30;99.90;;;;;;5925058;24;20137;-85
2022/07/12 23:12:09;;;;;;;7.32;3.10;;;20.30;99.90;;;;;;5982274;23;20540;-85
2022/07/12 23:18:25;;;;;;;;;;;;;;;;;;;;;
2022/07/12 23:21:22;;;;;;;;;;;20.20;99.90;;;;;;6045583;23;20540;-85
2022/07/12 23:24:18;;;;;;;7.55;3.13;;;20.30;99.90;;;;;;6041313;23;19917;-85
2022/07/12 23:27:08;;;;;;;7.78;3.20;;;20.10;99.90;;;;;;6099557;23;20025;-83
2022/07/12 23:33:15;;;;;;;7.78;3.67;;;20.00;99.90;;;;;;6068243;23;20463;-85
2022/07/12 23:35:49;;;;;;;7.10;3.10;;;19.80;99.90;;;;;;6049660;23;20027;-86
2022/07/12 23:39:04;;;;;;;9.07;3.70;;;20.70;99.90;;;;;;5994177;23;20015;-85
2022/07/12 23:41:42;;;;;;;8.82;3.53;;;19.80;99.90;;;;;;6040841;23;20019;-85
2022/07/12 23:44:26;;;;;;;11.48;4.07;;;19.70;99.90;;;;;;6065646;23;20015;-85
2022/07/12 23:47:12;;;;;;;10.85;4.47;;;20.00;99.90;;;;;;6040066;23;20030;-85
2022/07/12 23:49:38;;;;;;;8.65;4.28;;;20.00;99.90;;;;;;6099499;23;20013;-85
2022/07/12 23:52:19;;;;;;;8.23;4.40;;;20.70;99.90;;;;;;6185548;23;20079;-85
2022/07/12 23:54:44;;;;;;;11.65;4.95;;;20.10;99.90;;;;;;6157622;23;20022;-85
2022/07/12 23:57:55;;;;;;;8.23;4.38;;;20.00;99.90;;;;;;6159281;23;20152;-85
